Terminal Aerodrome Forecast
Issued by NWS

Home | Current Version | Previous Version | Text Only | Print | Product List | Glossary On
Versions: 1 2 3 4 5 6 7 8 9 10 11 12 13 14 15 16 17 18 19 20
848
FTUS43 KABR 181123
TAFATY
TAF
KATY 181123Z 1812/1912 22010KT P6SM BKN200
     FM181700 24014G21KT P6SM BKN200
     FM190400 31009KT P6SM SCT200=

USA.gov is the U.S. government's official web portal to all federal, state and local government web resources and services.